sensor_id;sensor_type;location;lat;lon;timestamp;P1;durP1;ratioP1;P2;durP2;ratioP2
3819;SDS011;1925;51.356;9.530;2023-04-15T00:00:36;5.68;;;4.90;;
3819;SDS011;1925;51.356;9.530;2023-04-15T00:03:02;7.45;;;4.95;;
3819;SDS011;1925;51.356;9.530;2023-04-15T00:05:32;5.85;;;4.55;;
3819;SDS011;1925;51.356;9.530;2023-04-15T00:07:59;4.83;;;4.40;;
3819;SDS011;1925;51.356;9.530;2023-04-15T00:10:26;5.63;;;4.82;;
3819;SDS011;1925;51.356;9.530;2023-04-15T00:12:52;6.85;;;5.38;;
3819;SDS011;1925;51.356;9.530;2023-04-15T00:15:18;7.90;;;5.65;;
3819;SDS011;1925;51.356;9.530;2023-04-15T00:17:44;5.70;;;5.20;;
3819;SDS011;1925;51.356;9.530;2023-04-15T00:20:10;5.43;;;4.80;;
3819;SDS011;1925;51.356;9.530;2023-04-15T00:22:36;10.65;;;5.03;;
3819;SDS011;1925;51.356;9.530;2023-04-15T00:25:03;5.20;;;4.70;;
3819;SDS011;1925;51.356;9.530;2023-04-15T00:27:29;5.70;;;5.10;;
3819;SDS011;1925;51.356;9.530;2023-04-15T00:29:55;5.83;;;4.77;;
3819;SDS011;1925;51.356;9.530;2023-04-15T00:32:21;6.78;;;5.50;;
3819;SDS011;1925;51.356;9.530;2023-04-15T00:34:47;7.70;;;5.07;;
3819;SDS011;1925;51.356;9.530;2023-04-15T00:37:13;6.75;;;6.00;;
3819;SDS011;1925;51.356;9.530;2023-04-15T00:39:39;5.97;;;4.90;;
3819;SDS011;1925;51.356;9.530;2023-04-15T00:42:05;6.72;;;5.43;;
3819;SDS011;1925;51.356;9.530;2023-04-15T00:44:32;7.77;;;5.50;;
3819;SDS011;1925;51.356;9.530;2023-04-15T00:46:59;6.10;;;5.32;;
3819;SDS011;1925;51.356;9.530;2023-04-15T00:49:26;5.70;;;5.20;;
3819;SDS011;1925;51.356;9.530;2023-04-15T00:51:52;7.75;;;5.70;;
3819;SDS011;1925;51.356;9.530;2023-04-15T00:54:18;9.00;;;5.03;;
3819;SDS011;1925;51.356;9.530;2023-04-15T00:56:45;7.50;;;5.85;;
3819;SDS011;1925;51.356;9.530;2023-04-15T00:59:11;6.70;;;5.70;;
3819;SDS011;1925;51.356;9.530;2023-04-15T01:01:37;6.32;;;5.25;;
3819;SDS011;1925;51.356;9.530;2023-04-15T01:04:03;6.87;;;5.70;;
3819;SDS011;1925;51.356;9.530;2023-04-15T01:06:30;10.65;;;6.50;;
3819;SDS011;1925;51.356;9.530;2023-04-15T01:08:56;8.07;;;6.87;;
3819;SDS011;1925;51.356;9.530;2023-04-15T01:11:23;6.75;;;6.10;;
3819;SDS011;1925;51.356;9.530;2023-04-15T01:13:52;8.98;;;5.90;;
3819;SDS011;1925;51.356;9.530;2023-04-15T01:16:21;5.53;;;4.90;;
3819;SDS011;1925;51.356;9.530;2023-04-15T01:18:46;6.50;;;5.80;;
3819;SDS011;1925;51.356;9.530;2023-04-15T01:21:13;8.55;;;5.72;;
3819;SDS011;1925;51.356;9.530;2023-04-15T01:23:39;5.70;;;5.20;;
3819;SDS011;1925;51.356;9.530;2023-04-15T01:26:06;6.95;;;5.82;;
3819;SDS011;1925;51.356;9.530;2023-04-15T01:28:35;5.93;;;5.32;;
3819;SDS011;1925;51.356;9.530;2023-04-15T01:31:09;8.30;;;5.57;;
3819;SDS011;1925;51.356;9.530;2023-04-15T01:33:35;6.18;;;5.22;;
3819;SDS011;1925;51.356;9.530;2023-04-15T01:36:02;6.18;;;5.57;;
3819;SDS011;1925;51.356;9.530;2023-04-15T01:38:28;6.40;;;5.80;;
3819;SDS011;1925;51.356;9.530;2023-04-15T01:40:54;6.28;;;5.57;;
3819;SDS011;1925;51.356;9.530;2023-04-15T01:43:21;7.15;;;5.50;;
3819;SDS011;1925;51.356;9.530;2023-04-15T01:45:47;9.50;;;6.03;;
3819;SDS011;1925;51.356;9.530;2023-04-15T01:48:13;7.70;;;6.82;;
3819;SDS011;1925;51.356;9.530;2023-04-15T01:50:39;6.10;;;5.50;;
3819;SDS011;1925;51.356;9.530;2023-04-15T01:53:05;7.10;;;6.40;;
3819;SDS011;1925;51.356;9.530;2023-04-15T01:55:30;6.10;;;5.50;;
3819;SDS011;1925;51.356;9.530;2023-04-15T01:57:56;6.60;;;5.13;;
3819;SDS011;1925;51.356;9.530;2023-04-15T02:00:22;8.67;;;5.70;;
3819;SDS011;1925;51.356;9.530;2023-04-15T02:02:49;7.22;;;6.10;;
3819;SDS011;1925;51.356;9.530;2023-04-15T02:05:15;6.15;;;5.55;;
3819;SDS011;1925;51.356;9.530;2023-04-15T02:07:41;7.80;;;6.20;;
3819;SDS011;1925;51.356;9.530;2023-04-15T02:10:07;7.32;;;6.65;;
3819;SDS011;1925;51.356;9.530;2023-04-15T02:12:34;5.90;;;5.30;;
3819;SDS011;1925;51.356;9.530;2023-04-15T02:15:00;8.90;;;5.63;;
3819;SDS011;1925;51.356;9.530;2023-04-15T02:17:26;7.20;;;6.50;;
3819;SDS011;1925;51.356;9.530;2023-04-15T02:19:52;6.00;;;5.40;;
3819;SDS011;1925;51.356;9.530;2023-04-15T02:22:18;9.20;;;5.57;;
3819;SDS011;1925;51.356;9.530;2023-04-15T02:24:44;6.53;;;5.90;;
3819;SDS011;1925;51.356;9.530;2023-04-15T02:27:14;11.55;;;6.20;;
3819;SDS011;1925;51.356;9.530;2023-04-15T02:29:40;7.15;;;5.78;;
3819;SDS011;1925;51.356;9.530;2023-04-15T02:32:06;7.03;;;6.10;;
3819;SDS011;1925;51.356;9.530;2023-04-15T02:34:32;8.10;;;6.53;;
3819;SDS011;1925;51.356;9.530;2023-04-15T02:36:58;7.27;;;6.07;;
3819;SDS011;1925;51.356;9.530;2023-04-15T02:39:24;8.40;;;7.50;;
3819;SDS011;1925;51.356;9.530;2023-04-15T02:41:50;10.18;;;6.53;;
3819;SDS011;1925;51.356;9.530;2023-04-15T02:44:16;9.00;;;7.25;;
3819;SDS011;1925;51.356;9.530;2023-04-15T02:46:44;7.97;;;6.80;;
3819;SDS011;1925;51.356;9.530;2023-04-15T02:49:16;8.35;;;7.07;;
3819;SDS011;1925;51.356;9.530;2023-04-15T02:51:42;9.50;;;7.27;;
3819;SDS011;1925;51.356;9.530;2023-04-15T02:54:09;8.35;;;7.00;;
3819;SDS011;1925;51.356;9.530;2023-04-15T02:56:35;6.93;;;6.22;;
3819;SDS011;1925;51.356;9.530;2023-04-15T02:59:01;8.73;;;6.60;;
3819;SDS011;1925;51.356;9.530;2023-04-15T03:01:27;6.90;;;6.20;;
3819;SDS011;1925;51.356;9.530;2023-04-15T03:03:53;7.80;;;6.20;;
3819;SDS011;1925;51.356;9.530;2023-04-15T03:06:19;7.90;;;7.10;;
3819;SDS011;1925;51.356;9.530;2023-04-15T03:08:44;8.30;;;6.63;;
3819;SDS011;1925;51.356;9.530;2023-04-15T03:11:10;7.30;;;6.60;;
3819;SDS011;1925;51.356;9.530;2023-04-15T03:13:36;8.00;;;6.60;;
3819;SDS011;1925;51.356;9.530;2023-04-15T03:16:05;8.45;;;7.13;;
3819;SDS011;1925;51.356;9.530;2023-04-15T03:18:31;9.38;;;7.05;;
3819;SDS011;1925;51.356;9.530;2023-04-15T03:20:57;9.27;;;7.10;;
3819;SDS011;1925;51.356;9.530;2023-04-15T03:23:23;13.13;;;8.60;;
3819;SDS011;1925;51.356;9.530;2023-04-15T03:25:49;15.07;;;8.85;;
3819;SDS011;1925;51.356;9.530;2023-04-15T03:28:15;14.18;;;9.05;;
3819;SDS011;1925;51.356;9.530;2023-04-15T03:30:41;7.57;;;6.77;;
3819;SDS011;1925;51.356;9.530;2023-04-15T03:33:07;9.10;;;7.70;;
3819;SDS011;1925;51.356;9.530;2023-04-15T03:35:33;15.53;;;8.30;;
3819;SDS011;1925;51.356;9.530;2023-04-15T03:37:59;9.82;;;7.53;;
3819;SDS011;1925;51.356;9.530;2023-04-15T03:40:25;10.07;;;7.50;;
3819;SDS011;1925;51.356;9.530;2023-04-15T03:42:51;9.23;;;7.47;;
3819;SDS011;1925;51.356;9.530;2023-04-15T03:45:17;9.20;;;7.47;;
3819;SDS011;1925;51.356;9.530;2023-04-15T03:47:43;8.33;;;7.40;;
3819;SDS011;1925;51.356;9.530;2023-04-15T03:50:09;10.65;;;6.65;;
3819;SDS011;1925;51.356;9.530;2023-04-15T03:52:35;8.20;;;7.37;;
3819;SDS011;1925;51.356;9.530;2023-04-15T03:55:01;10.97;;;7.10;;
3819;SDS011;1925;51.356;9.530;2023-04-15T03:57:27;7.50;;;6.70;;
3819;SDS011;1925;51.356;9.530;2023-04-15T03:59:53;8.50;;;6.37;;
3819;SDS011;1925;51.356;9.530;2023-04-15T04:02:19;6.50;;;5.88;;
3819;SDS011;1925;51.356;9.530;2023-04-15T04:04:46;7.90;;;7.05;;
3819;SDS011;1925;51.356;9.530;2023-04-15T04:07:15;8.53;;;7.07;;
3819;SDS011;1925;51.356;9.530;2023-04-15T04:09:42;9.30;;;7.20;;
3819;SDS011;1925;51.356;9.530;2023-04-15T04:12:08;9.87;;;6.80;;
3819;SDS011;1925;51.356;9.530;2023-04-15T04:14:34;9.25;;;7.25;;
3819;SDS011;1925;51.356;9.530;2023-04-15T04:17:00;7.93;;;7.13;;
3819;SDS011;1925;51.356;9.530;2023-04-15T04:19:26;8.57;;;7.20;;
3819;SDS011;1925;51.356;9.530;2023-04-15T04:21:53;8.35;;;7.45;;
3819;SDS011;1925;51.356;9.530;2023-04-15T04:24:19;7.70;;;7.00;;
3819;SDS011;1925;51.356;9.530;2023-04-15T04:26:45;8.40;;;7.33;;
3819;SDS011;1925;51.356;9.530;2023-04-15T04:29:11;8.95;;;6.78;;
3819;SDS011;1925;51.356;9.530;2023-04-15T04:31:37;9.17;;;7.97;;
3819;SDS011;1925;51.356;9.530;2023-04-15T04:34:03;8.07;;;6.80;;
3819;SDS011;1925;51.356;9.530;2023-04-15T04:36:30;8.50;;;7.38;;
3819;SDS011;1925;51.356;9.530;2023-04-15T04:38:56;7.82;;;6.72;;
3819;SDS011;1925;51.356;9.530;2023-04-15T04:41:22;14.43;;;7.97;;
3819;SDS011;1925;51.356;9.530;2023-04-15T04:43:48;8.90;;;7.57;;
3819;SDS011;1925;51.356;9.530;2023-04-15T04:46:13;8.70;;;7.27;;
3819;SDS011;1925;51.356;9.530;2023-04-15T04:48:39;11.23;;;8.20;;
3819;SDS011;1925;51.356;9.530;2023-04-15T04:51:05;8.70;;;7.33;;
3819;SDS011;1925;51.356;9.530;2023-04-15T04:53:32;9.90;;;8.45;;
3819;SDS011;1925;51.356;9.530;2023-04-15T04:55:58;9.55;;;7.72;;
3819;SDS011;1925;51.356;9.530;2023-04-15T04:58:24;8.40;;;7.50;;
3819;SDS011;1925;51.356;9.530;2023-04-15T05:00:50;9.40;;;8.40;;
3819;SDS011;1925;51.356;9.530;2023-04-15T05:03:16;10.30;;;7.90;;
3819;SDS011;1925;51.356;9.530;2023-04-15T05:05:42;9.50;;;7.30;;
3819;SDS011;1925;51.356;9.530;2023-04-15T05:08:08;9.77;;;8.30;;
3819;SDS011;1925;51.356;9.530;2023-04-15T05:10:34;9.00;;;7.80;;
3819;SDS011;1925;51.356;9.530;2023-04-15T05:13:00;12.30;;;9.02;;
3819;SDS011;1925;51.356;9.530;2023-04-15T05:15:26;10.10;;;8.68;;
3819;SDS011;1925;51.356;9.530;2023-04-15T05:17:52;10.10;;;8.90;;
3819;SDS011;1925;51.356;9.530;2023-04-15T05:20:18;12.48;;;8.85;;
3819;SDS011;1925;51.356;9.530;2023-04-15T05:22:44;11.47;;;9.43;;
3819;SDS011;1925;51.356;9.530;2023-04-15T05:25:10;10.53;;;9.30;;
3819;SDS011;1925;51.356;9.530;2023-04-15T05:27:36;11.10;;;9.05;;
3819;SDS011;1925;51.356;9.530;2023-04-15T05:30:02;11.37;;;9.33;;
3819;SDS011;1925;51.356;9.530;2023-04-15T05:32:28;12.52;;;9.10;;
3819;SDS011;1925;51.356;9.530;2023-04-15T05:34:54;12.05;;;10.10;;
3819;SDS011;1925;51.356;9.530;2023-04-15T05:37:20;13.85;;;10.63;;
3819;SDS011;1925;51.356;9.530;2023-04-15T05:39:46;11.77;;;9.57;;
3819;SDS011;1925;51.356;9.530;2023-04-15T05:42:13;11.80;;;10.15;;
3819;SDS011;1925;51.356;9.530;2023-04-15T05:44:39;9.32;;;8.43;;
3819;SDS011;1925;51.356;9.530;2023-04-15T05:47:05;11.30;;;9.13;;
3819;SDS011;1925;51.356;9.530;2023-04-15T05:49:32;11.68;;;9.80;;
3819;SDS011;1925;51.356;9.530;2023-04-15T05:51:58;12.57;;;9.70;;
3819;SDS011;1925;51.356;9.530;2023-04-15T05:54:24;10.38;;;8.70;;
3819;SDS011;1925;51.356;9.530;2023-04-15T05:56:51;11.35;;;9.43;;
3819;SDS011;1925;51.356;9.530;2023-04-15T05:59:17;10.43;;;8.70;;
3819;SDS011;1925;51.356;9.530;2023-04-15T06:01:43;12.00;;;10.73;;
3819;SDS011;1925;51.356;9.530;2023-04-15T06:04:09;12.63;;;10.63;;
3819;SDS011;1925;51.356;9.530;2023-04-15T06:06:36;12.02;;;10.07;;
3819;SDS011;1925;51.356;9.530;2023-04-15T06:09:02;12.52;;;10.35;;
3819;SDS011;1925;51.356;9.530;2023-04-15T06:11:28;11.85;;;10.65;;
3819;SDS011;1925;51.356;9.530;2023-04-15T06:13:54;12.77;;;11.47;;
3819;SDS011;1925;51.356;9.530;2023-04-15T06:16:20;14.30;;;11.33;;
3819;SDS011;1925;51.356;9.530;2023-04-15T06:18:47;14.25;;;10.48;;
3819;SDS011;1925;51.356;9.530;2023-04-15T06:21:13;14.13;;;11.40;;
3819;SDS011;1925;51.356;9.530;2023-04-15T06:23:39;13.00;;;11.30;;
3819;SDS011;1925;51.356;9.530;2023-04-15T06:26:05;11.18;;;9.40;;
3819;SDS011;1925;51.356;9.530;2023-04-15T06:28:31;12.27;;;10.03;;
3819;SDS011;1925;51.356;9.530;2023-04-15T06:30:57;15.70;;;11.07;;
3819;SDS011;1925;51.356;9.530;2023-04-15T06:33:23;12.63;;;10.37;;
3819;SDS011;1925;51.356;9.530;2023-04-15T06:35:49;12.20;;;9.73;;
3819;SDS011;1925;51.356;9.530;2023-04-15T06:38:15;14.20;;;9.80;;
3819;SDS011;1925;51.356;9.530;2023-04-15T06:40:41;12.50;;;9.43;;
3819;SDS011;1925;51.356;9.530;2023-04-15T06:43:07;10.77;;;8.70;;
3819;SDS011;1925;51.356;9.530;2023-04-15T06:45:33;11.38;;;9.38;;
3819;SDS011;1925;51.356;9.530;2023-04-15T06:47:59;11.50;;;8.83;;
3819;SDS011;1925;51.356;9.530;2023-04-15T06:50:25;10.75;;;9.35;;
3819;SDS011;1925;51.356;9.530;2023-04-15T06:52:52;12.93;;;9.80;;
3819;SDS011;1925;51.356;9.530;2023-04-15T06:55:18;12.15;;;9.88;;
3819;SDS011;1925;51.356;9.530;2023-04-15T06:57:44;12.50;;;10.17;;
3819;SDS011;1925;51.356;9.530;2023-04-15T07:00:10;12.37;;;9.80;;
3819;SDS011;1925;51.356;9.530;2023-04-15T07:02:36;13.50;;;11.30;;
3819;SDS011;1925;51.356;9.530;2023-04-15T07:05:03;13.20;;;10.47;;
3819;SDS011;1925;51.356;9.530;2023-04-15T07:07:29;11.85;;;10.50;;
3819;SDS011;1925;51.356;9.530;2023-04-15T07:09:55;12.87;;;10.27;;
3819;SDS011;1925;51.356;9.530;2023-04-15T07:12:21;12.70;;;10.73;;
3819;SDS011;1925;51.356;9.530;2023-04-15T07:14:47;11.77;;;9.43;;
3819;SDS011;1925;51.356;9.530;2023-04-15T07:17:13;14.10;;;11.55;;
3819;SDS011;1925;51.356;9.530;2023-04-15T07:19:39;13.60;;;10.87;;
3819;SDS011;1925;51.356;9.530;2023-04-15T07:22:05;13.50;;;10.93;;
3819;SDS011;1925;51.356;9.530;2023-04-15T07:24:31;12.85;;;9.77;;
3819;SDS011;1925;51.356;9.530;2023-04-15T07:26:57;15.52;;;12.52;;
3819;SDS011;1925;51.356;9.530;2023-04-15T07:29:24;13.15;;;10.85;;
3819;SDS011;1925;51.356;9.530;2023-04-15T07:31:51;14.25;;;11.40;;
3819;SDS011;1925;51.356;9.530;2023-04-15T07:34:17;13.57;;;10.93;;
3819;SDS011;1925;51.356;9.530;2023-04-15T07:36:44;16.33;;;12.23;;
3819;SDS011;1925;51.356;9.530;2023-04-15T07:39:14;14.73;;;11.07;;
3819;SDS011;1925;51.356;9.530;2023-04-15T07:41:40;12.55;;;10.75;;
3819;SDS011;1925;51.356;9.530;2023-04-15T07:44:06;21.93;;;12.80;;
3819;SDS011;1925;51.356;9.530;2023-04-15T07:46:32;15.13;;;11.73;;
3819;SDS011;1925;51.356;9.530;2023-04-15T07:48:58;18.17;;;13.00;;
3819;SDS011;1925;51.356;9.530;2023-04-15T07:51:24;15.45;;;12.00;;
3819;SDS011;1925;51.356;9.530;2023-04-15T07:53:50;16.37;;;11.90;;
3819;SDS011;1925;51.356;9.530;2023-04-15T07:56:16;14.85;;;11.85;;
3819;SDS011;1925;51.356;9.530;2023-04-15T07:58:42;17.30;;;12.57;;
3819;SDS011;1925;51.356;9.530;2023-04-15T08:01:08;15.37;;;11.77;;
3819;SDS011;1925;51.356;9.530;2023-04-15T08:03:34;18.08;;;12.10;;
3819;SDS011;1925;51.356;9.530;2023-04-15T08:06:00;13.40;;;10.63;;
3819;SDS011;1925;51.356;9.530;2023-04-15T08:08:26;14.50;;;11.20;;
3819;SDS011;1925;51.356;9.530;2023-04-15T08:10:52;14.40;;;11.20;;
3819;SDS011;1925;51.356;9.530;2023-04-15T08:13:18;11.57;;;9.57;;
3819;SDS011;1925;51.356;9.530;2023-04-15T08:15:45;15.35;;;11.50;;
3819;SDS011;1925;51.356;9.530;2023-04-15T08:18:11;14.50;;;10.35;;
3819;SDS011;1925;51.356;9.530;2023-04-15T08:20:36;14.67;;;11.13;;
3819;SDS011;1925;51.356;9.530;2023-04-15T08:23:02;12.97;;;10.37;;
3819;SDS011;1925;51.356;9.530;2023-04-15T08:25:28;13.73;;;10.23;;
3819;SDS011;1925;51.356;9.530;2023-04-15T08:27:54;12.40;;;10.30;;
3819;SDS011;1925;51.356;9.530;2023-04-15T08:30:24;11.55;;;9.23;;
3819;SDS011;1925;51.356;9.530;2023-04-15T08:32:50;13.87;;;10.20;;
3819;SDS011;1925;51.356;9.530;2023-04-15T08:35:16;13.23;;;9.07;;
3819;SDS011;1925;51.356;9.530;2023-04-15T08:37:42;13.38;;;9.60;;
3819;SDS011;1925;51.356;9.530;2023-04-15T08:40:09;12.37;;;9.33;;
3819;SDS011;1925;51.356;9.530;2023-04-15T08:42:36;10.70;;;9.57;;
3819;SDS011;1925;51.356;9.530;2023-04-15T08:45:03;10.90;;;8.38;;
3819;SDS011;1925;51.356;9.530;2023-04-15T08:47:29;10.48;;;8.45;;
3819;SDS011;1925;51.356;9.530;2023-04-15T08:49:56;9.93;;;8.43;;
3819;SDS011;1925;51.356;9.530;2023-04-15T08:52:25;9.50;;;7.75;;
3819;SDS011;1925;51.356;9.530;2023-04-15T08:54:54;10.25;;;7.85;;
3819;SDS011;1925;51.356;9.530;2023-04-15T08:57:24;12.23;;;7.50;;
3819;SDS011;1925;51.356;9.530;2023-04-15T08:59:51;12.40;;;8.10;;
3819;SDS011;1925;51.356;9.530;2023-04-15T09:02:17;8.95;;;7.15;;
3819;SDS011;1925;51.356;9.530;2023-04-15T09:04:43;7.50;;;6.68;;
3819;SDS011;1925;51.356;9.530;2023-04-15T09:07:09;8.38;;;6.35;;
3819;SDS011;1925;51.356;9.530;2023-04-15T09:09:35;8.30;;;6.83;;
3819;SDS011;1925;51.356;9.530;2023-04-15T09:12:04;9.38;;;7.13;;
3819;SDS011;1925;51.356;9.530;2023-04-15T09:14:30;8.10;;;6.53;;
3819;SDS011;1925;51.356;9.530;2023-04-15T09:16:58;8.65;;;6.43;;
3819;SDS011;1925;51.356;9.530;2023-04-15T09:19:25;10.43;;;6.85;;
3819;SDS011;1925;51.356;9.530;2023-04-15T09:21:54;10.70;;;8.32;;
3819;SDS011;1925;51.356;9.530;2023-04-15T09:24:21;9.07;;;7.20;;
3819;SDS011;1925;51.356;9.530;2023-04-15T09:26:47;7.90;;;6.43;;
3819;SDS011;1925;51.356;9.530;2023-04-15T09:29:16;10.82;;;6.50;;
3819;SDS011;1925;51.356;9.530;2023-04-15T09:31:42;7.07;;;5.63;;
3819;SDS011;1925;51.356;9.530;2023-04-15T09:34:08;7.05;;;5.82;;
3819;SDS011;1925;51.356;9.530;2023-04-15T09:36:53;5.70;;;4.50;;
3819;SDS011;1925;51.356;9.530;2023-04-15T09:39:19;6.65;;;5.60;;
3819;SDS011;1925;51.356;9.530;2023-04-15T09:41:45;8.23;;;6.23;;
3819;SDS011;1925;51.356;9.530;2023-04-15T09:44:24;5.03;;;4.50;;
3819;SDS011;1925;51.356;9.530;2023-04-15T09:46:50;5.78;;;4.85;;
3819;SDS011;1925;51.356;9.530;2023-04-15T09:49:16;6.60;;;5.30;;
3819;SDS011;1925;51.356;9.530;2023-04-15T09:51:42;8.73;;;6.40;;
3819;SDS011;1925;51.356;9.530;2023-04-15T09:54:08;6.32;;;4.93;;
3819;SDS011;1925;51.356;9.530;2023-04-15T09:56:35;5.93;;;5.10;;
3819;SDS011;1925;51.356;9.530;2023-04-15T09:59:02;5.18;;;4.68;;
3819;SDS011;1925;51.356;9.530;2023-04-15T10:01:30;5.40;;;4.80;;
3819;SDS011;1925;51.356;9.530;2023-04-15T10:03:56;7.78;;;5.28;;
3819;SDS011;1925;51.356;9.530;2023-04-15T10:06:25;5.28;;;4.78;;
3819;SDS011;1925;51.356;9.530;2023-04-15T10:08:51;5.05;;;4.38;;
3819;SDS011;1925;51.356;9.530;2023-04-15T10:11:18;5.85;;;4.43;;
3819;SDS011;1925;51.356;9.530;2023-04-15T10:13:47;4.82;;;4.18;;
3819;SDS011;1925;51.356;9.530;2023-04-15T10:16:14;4.95;;;4.10;;
3819;SDS011;1925;51.356;9.530;2023-04-15T10:18:45;4.18;;;3.42;;
3819;SDS011;1925;51.356;9.530;2023-04-15T10:21:11;4.40;;;3.58;;
3819;SDS011;1925;51.356;9.530;2023-04-15T10:23:42;4.25;;;3.85;;
3819;SDS011;1925;51.356;9.530;2023-04-15T10:26:10;5.30;;;4.55;;
3819;SDS011;1925;51.356;9.530;2023-04-15T10:28:37;3.88;;;3.33;;
3819;SDS011;1925;51.356;9.530;2023-04-15T10:31:03;3.45;;;2.90;;
3819;SDS011;1925;51.356;9.530;2023-04-15T10:33:29;6.07;;;3.55;;
3819;SDS011;1925;51.356;9.530;2023-04-15T10:35:55;3.45;;;3.15;;
3819;SDS011;1925;51.356;9.530;2023-04-15T10:43:49;3.50;;;2.90;;
3819;SDS011;1925;51.356;9.530;2023-04-15T10:49:06;3.70;;;3.30;;
3819;SDS011;1925;51.356;9.530;2023-04-15T10:51:33;3.22;;;2.90;;
3819;SDS011;1925;51.356;9.530;2023-04-15T10:54:03;3.30;;;2.70;;
3819;SDS011;1925;51.356;9.530;2023-04-15T10:56:33;3.97;;;2.95;;
3819;SDS011;1925;51.356;9.530;2023-04-15T10:58:59;3.97;;;3.50;;
3819;SDS011;1925;51.356;9.530;2023-04-15T11:02:11;3.92;;;2.92;;
3819;SDS011;1925;51.356;9.530;2023-04-15T11:04:12;2.58;;;2.38;;
3819;SDS011;1925;51.356;9.530;2023-04-15T11:06:44;2.80;;;2.40;;
3819;SDS011;1925;51.356;9.530;2023-04-15T11:09:16;3.10;;;2.80;;
3819;SDS011;1925;51.356;9.530;2023-04-15T11:12:06;2.67;;;2.47;;
3819;SDS011;1925;51.356;9.530;2023-04-15T11:14:33;3.03;;;2.67;;
3819;SDS011;1925;51.356;9.530;2023-04-15T11:17:02;2.40;;;2.20;;
3819;SDS011;1925;51.356;9.530;2023-04-15T11:19:34;3.10;;;2.80;;
3819;SDS011;1925;51.356;9.530;2023-04-15T11:22:09;4.90;;;2.70;;
3819;SDS011;1925;51.356;9.530;2023-04-15T11:24:36;2.70;;;2.20;;
3819;SDS011;1925;51.356;9.530;2023-04-15T11:27:23;2.63;;;2.35;;
3819;SDS011;1925;51.356;9.530;2023-04-15T11:29:49;2.83;;;2.60;;
3819;SDS011;1925;51.356;9.530;2023-04-15T11:32:15;3.03;;;2.40;;
3819;SDS011;1925;51.356;9.530;2023-04-15T11:34:42;2.77;;;2.57;;
3819;SDS011;1925;51.356;9.530;2023-04-15T11:37:10;4.50;;;3.42;;
3819;SDS011;1925;51.356;9.530;2023-04-15T11:39:36;3.30;;;2.87;;
3819;SDS011;1925;51.356;9.530;2023-04-15T11:42:02;3.67;;;3.17;;
3819;SDS011;1925;51.356;9.530;2023-04-15T11:44:28;4.93;;;3.55;;
3819;SDS011;1925;51.356;9.530;2023-04-15T11:46:54;4.47;;;3.30;;
3819;SDS011;1925;51.356;9.530;2023-04-15T11:49:29;2.80;;;2.53;;
3819;SDS011;1925;51.356;9.530;2023-04-15T11:51:57;3.90;;;2.85;;
3819;SDS011;1925;51.356;9.530;2023-04-15T11:54:24;2.80;;;2.60;;
3819;SDS011;1925;51.356;9.530;2023-04-15T11:56:50;2.93;;;2.63;;
3819;SDS011;1925;51.356;9.530;2023-04-15T11:59:18;3.55;;;2.70;;
3819;SDS011;1925;51.356;9.530;2023-04-15T12:01:44;4.40;;;2.50;;
3819;SDS011;1925;51.356;9.530;2023-04-15T12:04:12;3.90;;;2.75;;
3819;SDS011;1925;51.356;9.530;2023-04-15T12:06:38;2.85;;;2.40;;
3819;SDS011;1925;51.356;9.530;2023-04-15T12:11:32;2.70;;;2.50;;
3819;SDS011;1925;51.356;9.530;2023-04-15T12:14:02;3.08;;;2.60;;
3819;SDS011;1925;51.356;9.530;2023-04-15T12:16:28;2.75;;;2.40;;
3819;SDS011;1925;51.356;9.530;2023-04-15T12:18:55;3.70;;;3.08;;
3819;SDS011;1925;51.356;9.530;2023-04-15T12:21:21;3.97;;;2.55;;
3819;SDS011;1925;51.356;9.530;2023-04-15T12:23:49;3.00;;;2.70;;
3819;SDS011;1925;51.356;9.530;2023-04-15T12:26:15;3.30;;;2.65;;
3819;SDS011;1925;51.356;9.530;2023-04-15T12:28:41;4.07;;;3.10;;
3819;SDS011;1925;51.356;9.530;2023-04-15T12:31:08;2.80;;;2.58;;
3819;SDS011;1925;51.356;9.530;2023-04-15T12:33:34;3.75;;;3.03;;
3819;SDS011;1925;51.356;9.530;2023-04-15T12:36:00;4.70;;;3.13;;
3819;SDS011;1925;51.356;9.530;2023-04-15T12:38:27;4.10;;;3.70;;
3819;SDS011;1925;51.356;9.530;2023-04-15T12:40:52;3.40;;;2.90;;
3819;SDS011;1925;51.356;9.530;2023-04-15T12:43:18;5.10;;;4.10;;
3819;SDS011;1925;51.356;9.530;2023-04-15T12:45:44;4.25;;;3.85;;
3819;SDS011;1925;51.356;9.530;2023-04-15T12:48:10;5.63;;;4.13;;
3819;SDS011;1925;51.356;9.530;2023-04-15T12:50:37;4.78;;;4.32;;
3819;SDS011;1925;51.356;9.530;2023-04-15T12:53:02;5.47;;;4.90;;
3819;SDS011;1925;51.356;9.530;2023-04-15T12:55:28;4.30;;;3.90;;
3819;SDS011;1925;51.356;9.530;2023-04-15T12:57:55;5.75;;;4.95;;
3819;SDS011;1925;51.356;9.530;2023-04-15T13:00:21;5.03;;;4.28;;
3819;SDS011;1925;51.356;9.530;2023-04-15T13:02:47;5.70;;;4.60;;
3819;SDS011;1925;51.356;9.530;2023-04-15T13:05:13;4.68;;;3.92;;
3819;SDS011;1925;51.356;9.530;2023-04-15T13:07:40;4.50;;;4.00;;
3819;SDS011;1925;51.356;9.530;2023-04-15T13:10:06;4.20;;;3.55;;
3819;SDS011;1925;51.356;9.530;2023-04-15T13:12:32;5.45;;;4.20;;
3819;SDS011;1925;51.356;9.530;2023-04-15T13:15:04;4.60;;;3.83;;
3819;SDS011;1925;51.356;9.530;2023-04-15T13:17:30;5.38;;;3.92;;
3819;SDS011;1925;51.356;9.530;2023-04-15T13:19:56;4.60;;;3.90;;
3819;SDS011;1925;51.356;9.530;2023-04-15T13:22:22;4.53;;;3.77;;
3819;SDS011;1925;51.356;9.530;2023-04-15T13:24:48;5.67;;;4.60;;
3819;SDS011;1925;51.356;9.530;2023-04-15T13:27:15;6.05;;;4.90;;
3819;SDS011;1925;51.356;9.530;2023-04-15T13:29:41;5.23;;;4.40;;
3819;SDS011;1925;51.356;9.530;2023-04-15T13:32:07;4.72;;;4.22;;
3819;SDS011;1925;51.356;9.530;2023-04-15T13:34:33;6.78;;;5.32;;
3819;SDS011;1925;51.356;9.530;2023-04-15T13:37:04;7.13;;;4.80;;
3819;SDS011;1925;51.356;9.530;2023-04-15T13:39:30;6.30;;;5.43;;
3819;SDS011;1925;51.356;9.530;2023-04-15T13:41:56;6.27;;;4.60;;
3819;SDS011;1925;51.356;9.530;2023-04-15T13:44:22;8.17;;;5.57;;
3819;SDS011;1925;51.356;9.530;2023-04-15T13:46:48;6.07;;;4.93;;
3819;SDS011;1925;51.356;9.530;2023-04-15T13:49:14;6.33;;;5.53;;
3819;SDS011;1925;51.356;9.530;2023-04-15T13:51:40;6.60;;;5.70;;
3819;SDS011;1925;51.356;9.530;2023-04-15T13:54:06;8.20;;;6.00;;
3819;SDS011;1925;51.356;9.530;2023-04-15T13:56:32;7.43;;;6.37;;
3819;SDS011;1925;51.356;9.530;2023-04-15T13:58:58;6.37;;;5.57;;
3819;SDS011;1925;51.356;9.530;2023-04-15T14:01:26;6.63;;;4.95;;
3819;SDS011;1925;51.356;9.530;2023-04-15T14:03:52;8.10;;;7.27;;
3819;SDS011;1925;51.356;9.530;2023-04-15T14:06:18;8.40;;;6.80;;
3819;SDS011;1925;51.356;9.530;2023-04-15T14:08:44;6.93;;;6.20;;
3819;SDS011;1925;51.356;9.530;2023-04-15T14:11:10;10.35;;;7.65;;
3819;SDS011;1925;51.356;9.530;2023-04-15T14:13:36;7.30;;;6.60;;
3819;SDS011;1925;51.356;9.530;2023-04-15T14:16:02;8.00;;;7.10;;
3819;SDS011;1925;51.356;9.530;2023-04-15T14:18:28;8.77;;;7.45;;
3819;SDS011;1925;51.356;9.530;2023-04-15T14:20:54;8.98;;;6.85;;
3819;SDS011;1925;51.356;9.530;2023-04-15T14:23:21;11.02;;;7.90;;
3819;SDS011;1925;51.356;9.530;2023-04-15T14:25:47;8.57;;;7.60;;
3819;SDS011;1925;51.356;9.530;2023-04-15T14:28:13;11.20;;;9.60;;
3819;SDS011;1925;51.356;9.530;2023-04-15T14:30:39;13.57;;;9.13;;
3819;SDS011;1925;51.356;9.530;2023-04-15T14:33:05;11.53;;;9.10;;
3819;SDS011;1925;51.356;9.530;2023-04-15T14:35:31;13.60;;;8.80;;
3819;SDS011;1925;51.356;9.530;2023-04-15T14:37:57;10.45;;;8.60;;
3819;SDS011;1925;51.356;9.530;2023-04-15T14:40:23;13.00;;;9.10;;
3819;SDS011;1925;51.356;9.530;2023-04-15T14:42:49;12.13;;;9.20;;
3819;SDS011;1925;51.356;9.530;2023-04-15T14:45:15;10.43;;;8.10;;
3819;SDS011;1925;51.356;9.530;2023-04-15T14:47:41;9.57;;;7.85;;
3819;SDS011;1925;51.356;9.530;2023-04-15T14:50:07;10.87;;;8.70;;
3819;SDS011;1925;51.356;9.530;2023-04-15T14:52:33;13.13;;;9.00;;
3819;SDS011;1925;51.356;9.530;2023-04-15T14:55:06;12.02;;;9.23;;
3819;SDS011;1925;51.356;9.530;2023-04-15T14:57:32;12.10;;;9.27;;
3819;SDS011;1925;51.356;9.530;2023-04-15T14:59:58;13.40;;;9.07;;
3819;SDS011;1925;51.356;9.530;2023-04-15T15:02:24;13.48;;;9.05;;
3819;SDS011;1925;51.356;9.530;2023-04-15T15:04:50;12.17;;;9.27;;
3819;SDS011;1925;51.356;9.530;2023-04-15T15:07:16;10.33;;;8.07;;
3819;SDS011;1925;51.356;9.530;2023-04-15T15:09:42;10.40;;;8.50;;
3819;SDS011;1925;51.356;9.530;2023-04-15T15:12:08;17.03;;;9.23;;
3819;SDS011;1925;51.356;9.530;2023-04-15T15:14:33;10.57;;;8.27;;